Ang'angxi, China
Current Conditions -  °F | °C
As of 9:00 AM on Monday 24 Nov 2014 (Local Time) from ZYHB Reporting Station
Clear Clear  
Wind Chill:   Ceiling: Unl
Heat Index: 18°   Visibility: 6mi
Dew Point:   Wind: 7mph
Humidity: 68%   Direction: 310°NW
Pressure: 30.33"   Gusts: NA
Location:  47.15°N, 123.8°E
Report Text: ZYHB 240100Z 31003MPS 270V330 CAVOK M08/M13 Q1027 NOSIG
Loading
Personal Weather Stations






























Interactive Weather Map New forecast layout! Learn more

10-Day Weather Forecast

Advertisements
Track Severe Weather on mobile